Junction City, OR (97448)

8:22 AM PDT on September 29, 2016 (GMT -0700)
Grandview | | Change Station

Elev 492 ft 44.19 °N, 123.29 °W | Updated 4 seconds ago

Shallow Fog
Shallow Fog
49.8 °F
Feels Like 50 °F
N
0.0
Wind Variable Wind from North
Gusts 0.0 mph

Today
High -- | Low -- °F
--% Chance of Precip.
Yesterday
High -- | Low -- °F
Precip. -- in
Pressure 30.07 in
Visibility 10.0 miles
Clouds Few 1000 ft
Few 10000 ft
Mostly Cloudy 20000 ft
Windchill 50 °F
Dew Point 48 °F
Humidity 95%
Rainfall 0.00 in
Snow Depth Not available.
7:09 AM 6:56 PM
Waning Crescent, 2% visible
METAR KEUG 291454Z 00000KT 10SM MIFG FEW010 FEW100 BKN200 07/04 A3007 RMK AO2 SLP182 T00670039 53015
Pressure 30.07 in
Visibility 10.0 miles
Clouds Few 1000 ft
Few 10000 ft
Mostly Cloudy 20000 ft
Windchill 50 °F
Dew Point 48 °F
Humidity 95%
Rainfall 0.00 in
Snow Depth Not available.
7:09 AM 6:56 PM
Waning Crescent, 2% visible
METAR KEUG 291454Z 00000KT 10SM MIFG FEW010 FEW100 BKN200 07/04 A3007 RMK AO2 SLP182 T00670039 53015

10-Day Weather Forecast

Almanac

Astronomy

Sep. 29, 2016 Rise Set
Actual Time
Civil Twilight
Nautical Twilight
Astronomical Twilight
Moon
Length of Visible Light
Length of Day
Tomorrow will be .
, % of the Moon is Illuminated

Today's Extremes

State Highs State Lows

Community

WunderPhotos

Upload Photos

1,942,496 photos uploaded!

WunderBlog® & News

Nearby

Air Quality

  Air Quality AQ Index Pollutant
Not available.

Snow Depth

Station Depth Elevation

Earthquake Activity

City Distance Mag. Time & Date
Minimum magnitude displayed is 2.5.

Coastal Water Temperatures

Place Temperature

Stations

Nearby Weather Stations

Station Location Temp. Windchill Dew Point Humidity Wind Precip. Elev Updated Type
                   

Watches & Warnings

There are currently no watches in effect.